Time;durP1;ratioP1;P1;durP2;ratioP2;P2;SDS_P1;SDS_P2;PMS_P1;PMS_P2;Temp;Humidity;BMP_temperature;BMP_pressure;BME280_temperature;BME280_humidity;BME280_pressure;Samples;Min_cycle;Max_cycle;Signal;HPM_P1;HPM_P2
2022/03/05 00:00:05;;;;;;;0.22;0.22;;;0.30;99.90;;;;;;5105948;28;20035;-86
2022/03/05 00:02:31;;;;;;;0.30;0.30;;;-0.60;99.90;;;;;;5111656;28;20487;-91
2022/03/05 00:04:58;;;;;;;0.20;0.20;;;-0.60;99.90;;;;;;5083777;28;20079;-86
2022/03/05 00:07:25;;;;;;;0.25;0.25;;;-0.60;99.90;;;;;;5083002;28;20040;-86
2022/03/05 00:09:52;;;;;;;0.30;0.30;;;-0.70;99.90;;;;;;5084069;28;20032;-91
2022/03/05 00:12:18;;;;;;;0.30;0.30;;;-0.70;99.90;;;;;;5100501;28;20070;-86
2022/03/05 00:14:45;;;;;;;0.32;0.32;;;0.20;99.90;;;;;;5100136;28;20040;-86
2022/03/05 00:17:12;;;;;;;0.30;0.30;;;-0.80;99.90;;;;;;5100101;28;20134;-86
2022/03/05 00:19:39;;;;;;;0.30;0.30;;;0.30;99.90;;;;;;5100690;28;20172;-86
2022/03/05 00:22:06;;;;;;;0.40;0.40;;;-0.70;99.90;;;;;;5083385;28;20050;-86
2022/03/05 00:24:33;;;;;;;0.30;0.30;;;-0.80;99.90;;;;;;5133681;28;20425;-91
2022/03/05 00:27:00;;;;;;;0.30;0.30;;;-0.80;99.90;;;;;;5116425;28;20450;-86
2022/03/05 00:29:26;;;;;;;0.30;0.30;;;0.50;99.90;;;;;;5099777;28;20248;-86
2022/03/05 00:31:53;;;;;;;0.40;0.40;;;-0.70;99.90;;;;;;5099531;28;20067;-86
2022/03/05 00:34:20;;;;;;;0.40;0.40;;;-0.80;99.90;;;;;;5100166;28;20100;-86
2022/03/05 00:36:47;;;;;;;0.30;0.30;;;-0.80;99.90;;;;;;5100565;28;20051;-91
2022/03/05 00:39:14;;;;;;;0.30;0.30;;;0.30;99.90;;;;;;5083371;28;20043;-91
2022/03/05 00:41:40;;;;;;;0.30;0.30;;;-0.90;99.90;;;;;;5116808;28;20078;-90
2022/03/05 00:44:07;;;;;;;0.30;0.30;;;-0.90;99.90;;;;;;5149727;28;20079;-87
2022/03/05 00:46:34;;;;;;;0.25;0.25;;;0.30;99.90;;;;;;5133082;28;20043;-90
2022/03/05 00:49:01;;;;;;;0.30;0.30;;;-0.50;99.90;;;;;;5132833;28;20043;-90
2022/03/05 00:51:28;;;;;;;0.30;0.30;;;-1.20;99.90;;;;;;5099409;28;20082;-86
2022/03/05 00:53:57;;;;;;;0.30;0.30;;;-1.10;99.90;;;;;;5100563;28;20115;-86
2022/03/05 00:56:24;;;;;;;0.30;0.30;;;-1.10;99.90;;;;;;5150868;28;20126;-91
2022/03/05 00:58:51;;;;;;;0.30;0.30;;;0.20;99.90;;;;;;5150454;28;20065;-87
2022/03/05 01:01:18;;;;;;;0.35;0.35;;;-1.10;99.90;;;;;;5133261;27;20081;-86
2022/03/05 01:03:44;;;;;;;0.30;0.30;;;-0.90;99.90;;;;;;5082981;28;20040;-86
2022/03/05 01:06:11;;;;;;;0.38;0.38;;;-0.10;99.90;;;;;;5099216;28;20084;-86
2022/03/05 01:08:38;;;;;;;0.40;0.40;;;-1.20;99.90;;;;;;5099351;28;20044;-86
2022/03/05 01:11:05;;;;;;;0.30;0.30;;;0.30;99.90;;;;;;5083217;28;20043;-90
2022/03/05 01:13:32;;;;;;;0.30;0.30;;;-1.20;99.90;;;;;;5100368;28;20533;-86
2022/03/05 01:15:59;;;;;;;0.30;0.30;;;-1.10;99.90;;;;;;5082766;28;20035;-91
2022/03/05 01:18:25;;;;;;;0.20;0.20;;;-1.20;99.90;;;;;;5083192;28;20527;-86
2022/03/05 01:20:52;;;;;;;0.30;0.30;;;-1.20;99.90;;;;;;5116014;28;20122;-86
2022/03/05 01:23:20;;;;;;;0.30;0.30;;;-1.30;99.90;;;;;;5082896;28;20075;-86
2022/03/05 01:25:47;;;;;;;0.40;0.40;;;-1.30;99.90;;;;;;5082901;28;20135;-91
2022/03/05 01:28:16;;;;;;;0.30;0.30;;;-0.70;99.90;;;;;;5082339;28;20131;-86
2022/03/05 01:30:43;;;;;;;0.30;0.30;;;-1.30;99.90;;;;;;5099561;28;20510;-87
2022/03/05 01:33:12;;;;;;;0.30;0.30;;;-0.90;99.90;;;;;;5132050;28;20071;-86
2022/03/05 01:35:39;;;;;;;0.30;0.30;;;-0.60;99.90;;;;;;5133365;28;20047;-86
2022/03/05 01:38:06;;;;;;;0.38;0.38;;;-1.40;99.90;;;;;;5082091;28;20035;-86
2022/03/05 01:40:32;;;;;;;0.30;0.30;;;-0.90;99.90;;;;;;5082100;28;20039;-86
2022/03/05 01:43:00;;;;;;;0.30;0.30;;;-1.50;99.90;;;;;;5098773;28;20047;-86
2022/03/05 01:45:30;;;;;;;0.30;0.30;;;-1.50;99.90;;;;;;5081656;28;20042;-86
2022/03/05 01:47:57;;;;;;;0.30;0.30;;;-1.60;99.90;;;;;;5131780;28;20492;-91
2022/03/05 01:50:25;;;;;;;0.30;0.30;;;-1.50;99.90;;;;;;5082344;28;20488;-90
2022/03/05 01:52:53;;;;;;;0.30;0.30;;;-1.00;99.90;;;;;;5115504;28;20038;-90
2022/03/05 01:55:20;;;;;;;0.30;0.30;;;-1.40;99.90;;;;;;5149014;28;20035;-86
2022/03/05 01:57:47;;;;;;;0.30;0.30;;;-1.60;99.90;;;;;;5131902;28;20136;-91
2022/03/05 02:00:15;;;;;;;0.40;0.40;;;-0.60;99.90;;;;;;5081916;28;20079;-90
2022/03/05 02:02:43;;;;;;;0.30;0.30;;;-1.60;99.90;;;;;;5114360;28;20484;-86
2022/03/05 02:05:11;;;;;;;0.30;0.30;;;-1.60;99.90;;;;;;5098490;28;20213;-90
2022/03/05 02:07:38;;;;;;;0.40;0.40;;;-1.60;99.90;;;;;;5148928;28;20040;-90
2022/03/05 02:10:08;;;;;;;0.30;0.30;;;-1.60;99.90;;;;;;5115017;28;20564;-91
2022/03/05 02:12:37;;;;;;;0.30;0.30;;;-1.60;99.90;;;;;;5114967;28;20081;-90
2022/03/05 02:15:05;;;;;;;0.40;0.40;;;-1.60;99.90;;;;;;5097596;28;20035;-86
2022/03/05 02:17:32;;;;;;;0.30;0.30;;;-1.50;99.90;;;;;;5114589;28;20122;-86
2022/03/05 02:19:59;;;;;;;0.38;0.38;;;-0.20;99.90;;;;;;5081839;28;20134;-86
2022/03/05 02:22:26;;;;;;;0.40;0.40;;;-1.60;99.90;;;;;;5131221;28;20059;-90
2022/03/05 02:24:55;;;;;;;0.40;0.40;;;-1.60;99.90;;;;;;5148902;28;20042;-90
2022/03/05 02:27:24;;;;;;;0.30;0.30;;;-1.60;99.90;;;;;;5114530;28;20039;-90
2022/03/05 02:29:51;;;;;;;0.30;0.30;;;-1.60;99.90;;;;;;5131916;28;20452;-90
2022/03/05 02:32:19;;;;;;;0.30;0.30;;;-1.60;99.90;;;;;;5097981;28;20035;-90
2022/03/05 02:34:46;;;;;;;0.30;0.30;;;-0.30;99.90;;;;;;5081204;28;20115;-86
2022/03/05 02:37:15;;;;;;;0.30;0.30;;;-1.60;99.90;;;;;;5097441;28;20043;-90
2022/03/05 02:39:46;;;;;;;0.38;0.38;;;-1.60;99.90;;;;;;5098288;28;20504;-86
2022/03/05 02:42:15;;;;;;;0.32;0.32;;;-1.80;99.90;;;;;;5097525;28;20074;-86
2022/03/05 02:44:42;;;;;;;0.40;0.40;;;-1.50;99.90;;;;;;5131339;28;20039;-90
2022/03/05 02:47:09;;;;;;;0.40;0.40;;;-0.40;99.90;;;;;;5113314;28;20424;-90
2022/03/05 02:49:36;;;;;;;0.32;0.32;;;-1.70;99.90;;;;;;5130916;28;20046;-89
2022/03/05 02:52:04;;;;;;;0.30;0.30;;;-1.60;99.90;;;;;;5097585;28;20035;-86
2022/03/05 02:54:31;;;;;;;0.30;0.30;;;-1.60;99.90;;;;;;5097684;28;20067;-90
2022/03/05 02:56:57;;;;;;;0.40;0.40;;;-0.50;99.90;;;;;;5131275;28;20043;-90
2022/03/05 02:59:25;;;;;;;0.40;0.40;;;-0.10;99.90;;;;;;5097601;28;20120;-90
2022/03/05 03:01:51;;;;;;;0.40;0.40;;;-1.20;99.90;;;;;;5130757;28;20035;-90
2022/03/05 03:04:21;;;;;;;0.30;0.30;;;-0.70;99.90;;;;;;5081071;28;20061;-86
2022/03/05 03:06:50;;;;;;;0.40;0.40;;;-1.70;99.90;;;;;;5113881;28;20035;-90
2022/03/05 03:09:17;;;;;;;0.32;0.32;;;-1.70;99.90;;;;;;5114563;28;20492;-86
2022/03/05 03:11:43;;;;;;;0.35;0.35;;;-1.70;99.90;;;;;;5080620;28;20067;-89
2022/03/05 03:14:10;;;;;;;0.28;0.28;;;-1.70;99.90;;;;;;5079409;28;20076;-89
2022/03/05 03:16:37;;;;;;;0.40;0.40;;;-1.70;99.90;;;;;;5130650;28;20043;-86
2022/03/05 03:19:04;;;;;;;0.32;0.32;;;-0.80;99.90;;;;;;5080850;28;20048;-89
2022/03/05 03:21:31;;;;;;;0.35;0.35;;;-0.90;99.90;;;;;;5079851;28;20050;-90
2022/03/05 03:23:57;;;;;;;0.40;0.40;;;-0.40;99.90;;;;;;5113945;28;20051;-89
2022/03/05 03:26:24;;;;;;;0.30;0.30;;;-0.90;99.90;;;;;;5147019;28;20039;-86
2022/03/05 03:28:51;;;;;;;0.25;0.25;;;-1.20;99.90;;;;;;5105843;28;20130;-86
2022/03/05 03:31:17;;;;;;;0.30;0.30;;;-0.50;99.90;;;;;;5110769;28;20840;-91
2022/03/05 03:33:44;;;;;;;0.30;0.30;;;-1.00;99.90;;;;;;5117688;28;20038;-91
2022/03/05 03:36:11;;;;;;;0.30;0.30;;;-1.70;99.90;;;;;;5134243;28;20458;-87
2022/03/05 03:38:38;;;;;;;0.40;0.40;;;-0.60;99.90;;;;;;5117377;28;20066;-90
2022/03/05 03:41:04;;;;;;;0.30;0.30;;;-1.70;99.90;;;;;;5133710;28;20130;-90
2022/03/05 03:43:31;;;;;;;0.40;0.40;;;-1.70;99.90;;;;;;5100196;28;20493;-90
2022/03/05 03:45:58;;;;;;;0.30;0.30;;;-1.70;99.90;;;;;;5100488;28;20051;-91
2022/03/05 03:48:24;;;;;;;0.30;0.30;;;-1.70;99.90;;;;;;5100716;28;20046;-86
2022/03/05 03:50:51;;;;;;;0.30;0.30;;;-1.80;99.90;;;;;;5100410;28;20373;-90
2022/03/05 03:53:18;;;;;;;0.30;0.30;;;-1.70;99.90;;;;;;5116919;28;20046;-86
2022/03/05 03:55:45;;;;;;;0.30;0.30;;;-1.70;99.90;;;;;;5133932;28;20035;-86
2022/03/05 03:58:11;;;;;;;0.40;0.40;;;-0.70;99.90;;;;;;5100779;28;20035;-90
2022/03/05 04:00:38;;;;;;;0.40;0.40;;;-1.70;99.90;;;;;;5133302;28;20510;-85
2022/03/05 04:03:05;;;;;;;0.35;0.35;;;-1.70;99.90;;;;;;5100074;28;20039;-90
2022/03/05 04:05:32;;;;;;;0.40;0.40;;;-1.70;99.90;;;;;;5116334;28;20039;-90
2022/03/05 04:10:44;;;;;;;0.38;0.38;;;-1.10;99.90;;;;;;5122241;28;20043;-85
2022/03/05 04:13:10;;;;;;;0.40;0.40;;;-0.70;99.90;;;;;;5099833;28;20040;-85
2022/03/05 04:15:38;;;;;;;0.32;0.32;;;-1.70;99.90;;;;;;5099676;28;20042;-91
2022/03/05 04:18:06;;;;;;;0.30;0.30;;;-1.80;99.90;;;;;;5097546;28;20039;-90
2022/03/05 04:20:34;;;;;;;0.28;0.28;;;-0.70;99.90;;;;;;5096485;28;20043;-85
2022/03/05 04:23:00;;;;;;;0.30;0.30;;;-1.80;99.90;;;;;;5095696;28;20056;-85
2022/03/05 04:25:27;;;;;;;0.30;0.30;;;-2.00;99.90;;;;;;5103162;27;20415;-85
2022/03/05 04:27:54;;;;;;;0.30;0.30;;;-1.80;99.90;;;;;;5100513;28;20031;-90
2022/03/05 04:30:21;;;;;;;0.30;0.30;;;-0.70;99.90;;;;;;5116535;28;20078;-85
2022/03/05 04:32:48;;;;;;;0.30;0.30;;;-0.70;99.90;;;;;;5116667;28;20067;-89
2022/03/05 04:35:15;;;;;;;0.30;0.30;;;-1.90;99.90;;;;;;5100079;28;20047;-85
2022/03/05 04:37:41;;;;;;;0.40;0.40;;;-0.60;99.90;;;;;;5083091;28;20047;-90
2022/03/05 04:40:09;;;;;;;0.40;0.40;;;-1.20;99.90;;;;;;5083833;28;20044;-86
2022/03/05 04:42:36;;;;;;;0.30;0.30;;;-1.80;99.90;;;;;;5133342;28;20538;-85
2022/03/05 04:45:08;;;;;;;0.35;0.35;;;-1.90;99.90;;;;;;5083173;28;20088;-85
2022/03/05 04:47:35;;;;;;;0.30;0.30;;;-1.90;99.90;;;;;;5116829;28;20077;-90
2022/03/05 04:50:03;;;;;;;0.40;0.40;;;-0.80;99.90;;;;;;5116881;28;20043;-91
2022/03/05 04:52:30;;;;;;;0.32;0.32;;;-1.90;99.90;;;;;;5099417;28;20046;-90
2022/03/05 04:54:57;;;;;;;0.32;0.32;;;-1.80;99.90;;;;;;5100401;28;20043;-89
2022/03/05 04:57:25;;;;;;;0.35;0.35;;;-1.90;99.90;;;;;;5082715;28;20381;-90
2022/03/05 04:59:51;;;;;;;0.30;0.30;;;-1.90;99.90;;;;;;5099355;28;20044;-85
2022/03/05 05:02:18;;;;;;;0.30;0.30;;;-0.70;99.90;;;;;;5116410;28;20042;-89
2022/03/05 05:04:46;;;;;;;0.40;0.40;;;-2.00;99.90;;;;;;5099452;28;20439;-86
2022/03/05 05:07:13;;;;;;;0.38;0.38;;;-0.60;99.90;;;;;;5099537;28;20079;-89
2022/03/05 05:09:40;;;;;;;0.40;0.40;;;-0.50;99.90;;;;;;5115755;28;20097;-90
2022/03/05 05:12:08;;;;;;;0.40;0.40;;;-1.00;99.90;;;;;;5083385;28;20235;-89
2022/03/05 05:14:34;;;;;;;0.30;0.30;;;-1.90;99.90;;;;;;5099101;28;20039;-86
2022/03/05 05:17:01;;;;;;;0.38;0.38;;;-1.90;99.90;;;;;;5082307;28;20039;-86
2022/03/05 05:19:28;;;;;;;0.32;0.32;;;-1.90;99.90;;;;;;5115805;28;20040;-90
2022/03/05 05:21:58;;;;;;;0.40;0.40;;;-0.60;99.90;;;;;;5082410;28;20062;-85
2022/03/05 05:24:26;;;;;;;0.40;0.40;;;-0.70;99.90;;;;;;5132634;28;20054;-89
2022/03/05 05:26:57;;;;;;;0.40;0.40;;;-0.70;99.90;;;;;;5116077;28;20041;-86
2022/03/05 05:29:24;;;;;;;0.40;0.40;;;-2.00;99.90;;;;;;5115460;28;20454;-89
2022/03/05 05:31:51;;;;;;;0.40;0.40;;;-2.00;99.90;;;;;;5099218;28;20510;-85
2022/03/05 05:34:18;;;;;;;0.38;0.38;;;-0.60;99.90;;;;;;5082210;28;20036;-89
2022/03/05 05:36:45;;;;;;;0.40;0.40;;;-1.20;99.90;;;;;;5114534;28;20039;-89
2022/03/05 05:39:12;;;;;;;0.35;0.35;;;-2.00;99.90;;;;;;5099054;28;20035;-86
2022/03/05 05:41:39;;;;;;;0.30;0.30;;;-2.00;99.90;;;;;;5098703;28;20422;-86
2022/03/05 05:44:08;;;;;;;0.38;0.38;;;-2.00;99.90;;;;;;5098967;28;20035;-87
2022/03/05 05:46:35;;;;;;;0.40;0.40;;;-2.00;99.90;;;;;;5115351;28;20067;-90
2022/03/05 05:49:03;;;;;;;0.40;0.40;;;-1.90;99.90;;;;;;5081613;28;20035;-86
2022/03/05 05:51:32;;;;;;;0.40;0.40;;;-2.00;99.90;;;;;;5098174;28;20039;-85
2022/03/05 05:53:58;;;;;;;0.40;0.40;;;-2.00;99.90;;;;;;5115459;28;20040;-89
2022/03/05 05:56:25;;;;;;;0.40;0.40;;;-2.00;99.90;;;;;;5081516;28;20395;-85
2022/03/05 05:58:52;;;;;;;0.40;0.40;;;-2.00;99.90;;;;;;5098485;28;20075;-86
2022/03/05 06:01:19;;;;;;;0.40;0.40;;;-2.00;99.90;;;;;;5114802;28;20622;-89
2022/03/05 06:03:46;;;;;;;0.30;0.30;;;-0.60;99.90;;;;;;5115055;28;20040;-89
2022/03/05 06:06:13;;;;;;;0.40;0.40;;;-2.10;99.90;;;;;;5098553;28;20039;-89
2022/03/05 06:08:40;;;;;;;0.40;0.40;;;-0.70;99.90;;;;;;5081965;28;20088;-90
2022/03/05 06:11:06;;;;;;;0.40;0.40;;;-2.00;99.90;;;;;;5081244;28;20396;-85
2022/03/05 06:13:33;;;;;;;0.30;0.30;;;-0.90;99.90;;;;;;5080525;28;20400;-85
2022/03/05 06:16:00;;;;;;;0.40;0.40;;;-0.90;99.90;;;;;;5131848;28;20040;-90
2022/03/05 06:18:27;;;;;;;0.40;0.40;;;-0.90;99.90;;;;;;5098234;28;20451;-85
2022/03/05 06:20:54;;;;;;;0.40;0.40;;;-2.10;99.90;;;;;;5097608;28;20043;-90
2022/03/05 06:23:21;;;;;;;0.40;0.40;;;-1.70;99.90;;;;;;5148831;28;20078;-90
2022/03/05 06:25:47;;;;;;;0.52;0.52;;;-1.70;99.90;;;;;;5081256;28;20039;-86
2022/03/05 06:28:14;;;;;;;0.30;0.30;;;-2.00;99.90;;;;;;5081078;28;20044;-86
2022/03/05 06:30:41;;;;;;;0.30;0.30;;;-2.10;99.90;;;;;;5097382;28;20039;-86
2022/03/05 06:33:07;;;;;;;0.30;0.30;;;-2.00;99.90;;;;;;5081246;28;20039;-89
2022/03/05 06:35:34;;;;;;;0.40;0.40;;;-0.50;99.90;;;;;;5130467;28;20047;-86
2022/03/05 06:38:01;;;;;;;0.40;0.40;;;-1.40;99.90;;;;;;5080706;28;20078;-90
2022/03/05 06:40:28;;;;;;;0.40;0.40;;;-1.30;99.90;;;;;;5131487;28;20035;-89
2022/03/05 06:42:55;;;;;;;0.30;0.30;;;-1.90;99.90;;;;;;5147786;28;20586;-89
2022/03/05 06:45:21;;;;;;;0.40;0.40;;;-2.00;99.90;;;;;;5096818;28;20133;-91
2022/03/05 06:47:48;;;;;;;0.40;0.40;;;-0.50;99.90;;;;;;5097782;28;20117;-86
2022/03/05 06:50:15;;;;;;;0.30;0.30;;;-1.90;99.90;;;;;;5130811;28;20038;-86
2022/03/05 06:52:42;;;;;;;0.40;0.40;;;-0.90;99.90;;;;;;5130738;28;20031;-90
2022/03/05 06:55:13;;;;;;;0.30;0.30;;;-1.80;99.90;;;;;;5131151;28;20031;-90
2022/03/05 06:57:41;;;;;;;0.40;0.40;;;-1.80;99.90;;;;;;5097589;28;20040;-89
2022/03/05 07:00:09;;;;;;;0.30;0.30;;;-1.80;99.90;;;;;;5080690;28;20180;-90
2022/03/05 07:02:36;;;;;;;0.40;0.40;;;-1.70;99.90;;;;;;5147549;28;20126;-86
2022/03/05 07:05:03;;;;;;;0.40;0.40;;;-1.70;99.90;;;;;;5147631;28;20126;-91
2022/03/05 07:07:29;;;;;;;0.30;0.30;;;-1.60;99.90;;;;;;5130957;28;20100;-85
2022/03/05 07:09:56;;;;;;;0.40;0.40;;;-1.10;99.90;;;;;;5080169;28;20062;-90
2022/03/05 07:12:24;;;;;;;0.40;0.40;;;-1.50;99.90;;;;;;5114090;28;20032;-90
2022/03/05 07:14:51;;;;;;;0.30;0.30;;;-1.50;99.90;;;;;;5096570;28;20039;-86
2022/03/05 07:17:18;;;;;;;0.40;0.40;;;-0.50;99.90;;;;;;5097444;28;20040;-89
2022/03/05 07:19:45;;;;;;;0.30;0.30;;;-1.40;99.90;;;;;;5132722;27;20491;-86
2022/03/05 07:22:12;;;;;;;0.30;0.30;;;-1.20;99.90;;;;;;5134206;27;20051;-90
2022/03/05 07:24:39;;;;;;;0.32;0.32;;;-0.90;99.90;;;;;;5116795;27;20491;-89
2022/03/05 07:27:06;;;;;;;0.32;0.32;;;0.00;99.90;;;;;;5134073;28;20047;-90
2022/03/05 07:29:32;;;;;;;0.30;0.30;;;-0.20;99.90;;;;;;5100208;28;20035;-90
2022/03/05 07:31:59;;;;;;;0.30;0.30;;;0.30;99.90;;;;;;5107152;28;20051;-86
2022/03/05 07:34:26;;;;;;;0.30;0.30;;;-1.00;99.90;;;;;;5097043;28;20035;-85
2022/03/05 07:36:52;;;;;;;0.22;0.22;;;-0.40;99.90;;;;;;5079307;28;20126;-90
2022/03/05 07:39:19;;;;;;;0.30;0.30;;;-0.30;99.90;;;;;;5080112;28;20039;-86
2022/03/05 07:41:46;;;;;;;0.35;0.35;;;0.50;99.90;;;;;;5096721;28;20036;-90
2022/03/05 07:44:13;;;;;;;0.30;0.30;;;-0.70;99.90;;;;;;5080476;28;20108;-90
2022/03/05 07:46:40;;;;;;;0.40;0.40;;;0.50;99.90;;;;;;5113268;28;20036;-89
2022/03/05 07:49:06;;;;;;;0.40;0.40;;;0.10;99.90;;;;;;5096632;28;20035;-86
2022/03/05 07:51:34;;;;;;;0.30;0.30;;;0.40;99.90;;;;;;5121361;28;20118;-90
2022/03/05 07:54:01;;;;;;;0.30;0.30;;;-0.50;99.90;;;;;;5096343;28;20416;-89
2022/03/05 07:56:27;;;;;;;0.20;0.20;;;0.00;99.90;;;;;;5134170;28;20047;-89
2022/03/05 07:58:54;;;;;;;0.25;0.25;;;-0.40;99.90;;;;;;5099994;28;20043;-90
2022/03/05 08:01:21;;;;;;;0.30;0.30;;;1.20;99.90;;;;;;5151177;27;20126;-90
2022/03/05 08:03:48;;;;;;;0.32;0.32;;;1.20;99.90;;;;;;5100813;28;20043;-87
2022/03/05 08:06:15;;;;;;;0.30;0.30;;;1.30;99.90;;;;;;5084149;28;20126;-90
2022/03/05 08:08:42;;;;;;;0.38;0.38;;;-0.10;99.90;;;;;;5100836;28;20046;-85
2022/03/05 08:11:10;;;;;;;0.50;0.50;;;0.90;99.90;;;;;;5100723;28;20122;-86
2022/03/05 08:13:39;;;;;;;0.30;0.30;;;0.00;99.90;;;;;;5100903;28;20036;-86
2022/03/05 08:16:07;;;;;;;0.30;0.30;;;0.20;99.90;;;;;;5100297;28;20042;-86
2022/03/05 08:18:34;;;;;;;0.30;0.30;;;1.30;99.90;;;;;;5100909;28;20438;-86
2022/03/05 08:21:02;;;;;;;0.30;0.30;;;1.70;99.90;;;;;;5099957;28;20036;-86
2022/03/05 08:23:29;;;;;;;0.30;0.30;;;1.90;99.90;;;;;;5100601;28;20040;-91
2022/03/05 08:25:56;;;;;;;0.40;0.40;;;1.20;99.90;;;;;;5099661;28;20039;-90
2022/03/05 08:28:22;;;;;;;0.30;0.30;;;1.50;99.90;;;;;;5100355;28;20042;-90
2022/03/05 08:30:49;;;;;;;0.30;0.30;;;2.00;99.90;;;;;;5092536;27;20624;-86
2022/03/05 08:33:17;;;;;;;0.30;0.30;;;0.80;99.90;;;;;;5100347;27;20521;-86
2022/03/05 08:35:44;;;;;;;0.30;0.30;;;0.80;99.90;;;;;;5114263;27;20036;-86
2022/03/05 08:38:10;;;;;;;0.40;0.40;;;1.00;99.90;;;;;;5128169;27;20491;-86
2022/03/05 08:40:37;;;;;;;0.38;0.38;;;1.90;99.90;;;;;;5097491;27;20051;-86
2022/03/05 08:43:04;;;;;;;0.35;0.35;;;1.40;99.90;;;;;;5111046;27;20080;-86
2022/03/05 08:45:31;;;;;;;0.30;0.30;;;1.20;99.90;;;;;;5084747;28;20042;-86
2022/03/05 08:47:58;;;;;;;0.20;0.20;;;2.70;99.90;;;;;;5099694;28;20039;-91
2022/03/05 08:50:25;;;;;;;0.20;0.20;;;1.40;99.90;;;;;;5099894;28;20126;-86
2022/03/05 08:52:53;;;;;;;0.25;0.25;;;2.20;99.90;;;;;;5087517;27;20115;-87
2022/03/05 08:55:20;;;;;;;0.30;0.30;;;1.60;99.90;;;;;;5136942;27;20035;-87
2022/03/05 08:57:46;;;;;;;1.85;0.77;;;3.10;99.90;;;;;;5103082;27;20162;-91
2022/03/05 09:00:15;;;;;;;0.20;0.20;;;1.80;99.90;;;;;;5103549;27;20039;-89
2022/03/05 09:02:42;;;;;;;0.20;0.20;;;1.80;99.90;;;;;;5119723;27;20035;-86
2022/03/05 09:05:09;;;;;;;0.20;0.20;;;1.90;99.90;;;;;;5119774;27;20495;-91
2022/03/05 09:07:37;;;;;;;0.20;0.20;;;2.00;99.90;;;;;;5119332;27;20050;-86
2022/03/05 09:10:04;;;;;;;0.30;0.30;;;2.20;99.90;;;;;;5102591;27;20046;-90
2022/03/05 09:12:31;;;;;;;0.28;0.28;;;2.20;99.90;;;;;;5102169;27;20042;-90
2022/03/05 09:14:58;;;;;;;0.20;0.20;;;3.30;99.90;;;;;;5119614;27;20043;-90
2022/03/05 09:17:25;;;;;;;0.20;0.20;;;2.40;99.90;;;;;;5103145;27;20046;-86
2022/03/05 09:19:53;;;;;;;0.20;0.20;;;2.60;99.90;;;;;;5102256;27;20385;-86
2022/03/05 09:22:20;;;;;;;0.20;0.20;;;2.60;99.90;;;;;;5103419;27;20069;-86
2022/03/05 09:24:47;;;;;;;0.20;0.20;;;2.70;99.90;;;;;;5119300;27;20058;-90
2022/03/05 09:27:14;;;;;;;0.20;0.20;;;3.60;99.90;;;;;;5118687;27;20420;-85
2022/03/05 09:29:40;;;;;;;0.52;0.32;;;4.00;99.90;;;;;;5119055;27;20074;-90
2022/03/05 09:32:08;;;;;;;0.20;0.20;;;3.00;99.90;;;;;;5135201;27;20039;-85
2022/03/05 09:34:35;;;;;;;0.20;0.20;;;3.10;99.90;;;;;;5102620;27;20484;-90
2022/03/05 09:37:03;;;;;;;0.20;0.20;;;3.30;99.90;;;;;;5118983;27;20035;-90
2022/03/05 09:39:29;;;;;;;0.20;0.20;;;3.20;99.90;;;;;;5136064;27;20039;-90
2022/03/05 09:41:57;;;;;;;0.20;0.20;;;3.40;99.90;;;;;;5101965;27;20456;-85
2022/03/05 09:44:23;;;;;;;0.20;0.20;;;4.40;99.90;;;;;;5135760;27;20079;-90
2022/03/05 09:46:51;;;;;;;0.10;0.10;;;4.60;99.90;;;;;;5102515;27;20078;-86
2022/03/05 09:49:18;;;;;;;0.20;0.20;;;3.70;99.90;;;;;;5118455;27;20035;-84
2022/03/05 09:51:44;;;;;;;0.20;0.20;;;3.90;99.90;;;;;;5135563;27;20043;-89
2022/03/05 09:54:12;;;;;;;0.20;0.20;;;3.70;99.90;;;;;;5118116;27;20039;-86
2022/03/05 09:56:38;;;;;;;0.17;0.17;;;3.80;99.90;;;;;;5118594;27;20035;-89
2022/03/05 09:59:07;;;;;;;0.20;0.20;;;3.90;99.90;;;;;;5101541;27;20050;-89
2022/03/05 10:01:37;;;;;;;0.10;0.10;;;3.90;99.90;;;;;;5110221;27;20504;-89
2022/03/05 10:04:04;;;;;;;0.20;0.20;;;4.00;99.90;;;;;;5134689;28;20035;-89
2022/03/05 10:06:31;;;;;;;0.20;0.20;;;4.10;99.90;;;;;;5096436;28;20041;-86
2022/03/05 10:08:58;;;;;;;0.20;0.20;;;4.10;99.90;;;;;;5095022;28;20544;-86
2022/03/05 10:11:38;;;;;;;0.20;0.20;;;4.10;99.90;;;;;;5098919;28;20039;-89
2022/03/05 10:14:15;;;;;;;0.10;0.10;;;4.20;99.90;;;;;;5109082;28;20080;-86
2022/03/05 10:16:42;;;;;;;0.17;0.17;;;4.30;99.90;;;;;;5097701;28;20511;-90
2022/03/05 10:19:17;;;;;;;0.20;0.20;;;4.50;99.90;;;;;;5129886;28;20036;-91
2022/03/05 10:22:04;;;;;;;0.10;0.10;;;4.40;99.90;;;;;;5113615;28;20079;-86
2022/03/05 10:24:37;;;;;;;0.20;0.20;;;4.40;99.90;;;;;;5101845;27;20081;-90
2022/03/05 10:27:07;;;;;;;0.17;0.17;;;4.40;99.90;;;;;;5111447;28;20089;-86
2022/03/05 10:29:39;;;;;;;0.10;0.10;;;4.40;99.90;;;;;;5116862;28;20400;-86
2022/03/05 10:32:08;;;;;;;0.20;0.20;;;4.60;99.90;;;;;;5106024;28;20470;-90
2022/03/05 10:34:41;;;;;;;0.10;0.10;;;4.50;99.90;;;;;;5122706;28;20114;-86
2022/03/05 10:37:08;;;;;;;0.20;0.20;;;4.60;99.90;;;;;;5126153;27;20043;-90
2022/03/05 10:39:35;;;;;;;0.20;0.20;;;4.70;99.90;;;;;;5116738;27;20039;-87
2022/03/05 10:42:03;;;;;;;0.10;0.10;;;4.80;99.90;;;;;;5122694;28;20042;-86
2022/03/05 10:44:30;;;;;;;0.10;0.10;;;4.90;99.90;;;;;;5113741;28;20047;-89
2022/03/05 10:46:58;;;;;;;0.20;0.20;;;4.90;99.90;;;;;;5113903;28;20301;-89
2022/03/05 10:49:33;;;;;;;0.10;0.10;;;5.00;99.90;;;;;;5096833;28;20511;-91
2022/03/05 10:52:00;;;;;;;0.10;0.10;;;5.60;99.90;;;;;;5114286;28;20040;-90
2022/03/05 10:54:27;;;;;;;0.13;0.13;;;5.10;99.90;;;;;;5113172;28;20111;-86
2022/03/05 10:57:10;;;;;;;0.13;0.13;;;5.10;99.90;;;;;;5097838;28;20050;-90
2022/03/05 10:59:52;;;;;;;0.10;0.10;;;5.10;99.90;;;;;;5130669;28;20126;-86
2022/03/05 11:02:21;;;;;;;0.10;0.10;;;5.20;99.90;;;;;;5138238;28;20089;-90
2022/03/05 11:04:49;;;;;;;0.47;0.40;;;5.20;99.90;;;;;;5113501;28;20047;-92
2022/03/05 11:07:17;;;;;;;0.10;0.10;;;5.20;99.90;;;;;;5147737;28;20047;-90
2022/03/05 11:09:47;;;;;;;0.17;0.17;;;4.50;99.90;;;;;;5113390;28;20119;-86
2022/03/05 11:12:19;;;;;;;0.10;0.10;;;5.20;99.90;;;;;;5113088;28;20085;-86
2022/03/05 11:14:51;;;;;;;0.17;0.17;;;5.20;99.90;;;;;;5093369;28;20032;-86
2022/03/05 11:17:19;;;;;;;0.17;0.17;;;5.30;99.90;;;;;;5092756;28;20127;-90
2022/03/05 11:19:46;;;;;;;0.10;0.10;;;5.30;99.90;;;;;;5096339;28;20046;-86
2022/03/05 11:22:15;;;;;;;0.10;0.10;;;5.30;99.90;;;;;;5120614;28;20044;-86
2022/03/05 11:24:45;;;;;;;0.10;0.10;;;5.40;99.90;;;;;;5112196;28;20126;-86
2022/03/05 11:27:13;;;;;;;0.20;0.20;;;5.40;99.90;;;;;;5075916;28;20505;-86
2022/03/05 11:30:05;;;;;;;0.10;0.10;;;5.40;99.90;;;;;;5122015;27;20035;-86
2022/03/05 11:32:39;;;;;;;0.20;0.20;;;5.40;99.90;;;;;;5122674;28;20465;-87
2022/03/05 11:35:25;;;;;;;0.20;0.20;;;5.60;99.90;;;;;;5113156;28;20036;-86
2022/03/05 11:37:52;;;;;;;0.20;0.20;;;5.50;99.90;;;;;;5116670;28;20077;-86
2022/03/05 11:40:37;;;;;;;0.10;0.10;;;5.60;99.90;;;;;;5095250;28;20036;-91
2022/03/05 11:43:25;;;;;;;0.20;0.20;;;5.60;99.90;;;;;;5113078;28;20488;-90
2022/03/05 11:46:02;;;;;;;0.30;0.30;;;5.60;99.90;;;;;;5129502;28;20032;-90
2022/03/05 11:48:38;;;;;;;0.13;0.13;;;5.60;99.90;;;;;;5113434;28;20493;-90
2022/03/05 11:51:14;;;;;;;0.10;0.10;;;5.60;99.90;;;;;;5128065;28;20043;-91
2022/03/05 11:53:41;;;;;;;;;;;5.70;99.90;;;;;;5154491;28;20043;-91
2022/03/05 11:56:24;;;;;;;0.10;0.10;;;5.70;99.90;;;;;;5095631;28;19925;-86
2022/03/05 11:58:54;;;;;;;0.10;0.10;;;5.60;99.90;;;;;;5110494;28;20061;-86
2022/03/05 12:01:34;;;;;;;0.10;0.10;;;5.80;99.90;;;;;;5079808;28;20084;-86
2022/03/05 12:04:17;;;;;;;0.15;0.15;;;5.70;99.90;;;;;;5112694;28;20040;-86
2022/03/05 12:06:46;;;;;;;0.10;0.10;;;5.80;99.90;;;;;;5112767;28;20042;-90
2022/03/05 12:09:34;;;;;;;0.10;0.10;;;5.80;99.90;;;;;;5120769;28;20039;-91
2022/03/05 12:12:04;;;;;;;0.10;0.10;;;5.80;99.90;;;;;;5133380;28;20050;-91
2022/03/05 12:14:55;;;;;;;0.38;0.38;;;5.70;99.90;;;;;;5099687;28;20040;-91
2022/03/05 12:17:30;;;;;;;0.10;0.10;;;5.80;99.90;;;;;;5108918;28;20040;-86
2022/03/05 12:19:57;;;;;;;0.10;0.10;;;5.80;99.90;;;;;;5094191;28;20039;-86
2022/03/05 12:22:23;;;;;;;0.20;0.20;;;5.80;99.90;;;;;;5106670;28;20745;-85
2022/03/05 12:24:50;;;;;;;0.10;0.10;;;6.00;99.90;;;;;;5112533;28;20069;-91
2022/03/05 12:27:19;;;;;;;0.10;0.10;;;6.00;99.90;;;;;;5129443;28;20035;-90
2022/03/05 12:29:50;;;;;;;0.10;0.10;;;6.00;99.90;;;;;;5095258;28;20044;-86
2022/03/05 12:32:18;;;;;;;0.10;0.10;;;6.10;99.90;;;;;;5112778;28;20122;-86
2022/03/05 12:34:46;;;;;;;0.15;0.15;;;6.10;99.90;;;;;;5112531;28;20116;-90
2022/03/05 12:37:12;;;;;;;0.20;0.20;;;6.10;99.90;;;;;;5112440;28;20035;-91
2022/03/05 12:39:43;;;;;;;0.10;0.10;;;6.10;99.90;;;;;;5092880;28;20062;-90
2022/03/05 12:42:10;;;;;;;0.10;0.10;;;6.10;99.90;;;;;;5095412;28;20039;-90
2022/03/05 12:44:39;;;;;;;0.10;0.10;;;6.00;99.90;;;;;;5075316;28;20883;-86
2022/03/05 12:47:06;;;;;;;0.10;0.10;;;6.00;99.90;;;;;;5087177;27;20043;-91
2022/03/05 12:49:33;;;;;;;0.20;0.20;;;6.10;99.90;;;;;;5135516;27;20050;-91
2022/03/05 12:52:00;;;;;;;0.10;0.10;;;6.10;99.90;;;;;;5099322;28;20039;-86
2022/03/05 12:54:27;;;;;;;0.10;0.10;;;6.40;99.90;;;;;;5115597;28;20039;-86
2022/03/05 12:56:55;;;;;;;0.10;0.10;;;6.20;99.90;;;;;;5099449;28;20407;-86